sensor_id;sensor_type;location;lat;lon;timestamp;temperature;humidity
34985;DHT22;21190;58.750;17.004;2023-09-07T00:00:17;13.10;99.90
34985;DHT22;21190;58.750;17.004;2023-09-07T00:02:44;13.10;99.90
34985;DHT22;21190;58.750;17.004;2023-09-07T00:05:11;13.10;99.90
34985;DHT22;21190;58.750;17.004;2023-09-07T00:07:40;13.10;99.90
34985;DHT22;21190;58.750;17.004;2023-09-07T00:10:07;13.00;99.90
34985;DHT22;21190;58.750;17.004;2023-09-07T00:12:34;13.00;99.90
34985;DHT22;21190;58.750;17.004;2023-09-07T00:15:01;13.00;99.90
34985;DHT22;21190;58.750;17.004;2023-09-07T00:17:28;13.00;99.90
34985;DHT22;21190;58.750;17.004;2023-09-07T00:19:55;13.00;99.90
34985;DHT22;21190;58.750;17.004;2023-09-07T00:22:24;12.90;99.90
34985;DHT22;21190;58.750;17.004;2023-09-07T00:24:52;12.90;99.90
34985;DHT22;21190;58.750;17.004;2023-09-07T00:27:19;12.90;99.90
34985;DHT22;21190;58.750;17.004;2023-09-07T00:29:46;12.90;99.90
34985;DHT22;21190;58.750;17.004;2023-09-07T00:32:13;12.90;99.90
34985;DHT22;21190;58.750;17.004;2023-09-07T00:34:40;13.00;99.90
34985;DHT22;21190;58.750;17.004;2023-09-07T00:37:08;13.00;99.90
34985;DHT22;21190;58.750;17.004;2023-09-07T00:39:35;13.00;99.90
34985;DHT22;21190;58.750;17.004;2023-09-07T00:42:02;13.00;99.90
34985;DHT22;21190;58.750;17.004;2023-09-07T00:44:29;12.90;99.90
34985;DHT22;21190;58.750;17.004;2023-09-07T00:46:58;12.90;99.90
34985;DHT22;21190;58.750;17.004;2023-09-07T00:49:26;12.90;99.90
34985;DHT22;21190;58.750;17.004;2023-09-07T00:51:53;12.90;99.90
34985;DHT22;21190;58.750;17.004;2023-09-07T00:54:20;12.80;99.90
34985;DHT22;21190;58.750;17.004;2023-09-07T00:56:47;12.80;99.90
34985;DHT22;21190;58.750;17.004;2023-09-07T00:59:14;12.70;99.90
34985;DHT22;21190;58.750;17.004;2023-09-07T01:01:41;12.70;99.90
34985;DHT22;21190;58.750;17.004;2023-09-07T01:04:10;12.80;99.90
34985;DHT22;21190;58.750;17.004;2023-09-07T01:06:46;12.80;99.90
34985;DHT22;21190;58.750;17.004;2023-09-07T01:09:24;12.80;99.90
34985;DHT22;21190;58.750;17.004;2023-09-07T01:11:51;12.80;99.90
34985;DHT22;21190;58.750;17.004;2023-09-07T01:14:19;12.80;99.90
34985;DHT22;21190;58.750;17.004;2023-09-07T01:16:47;12.80;99.90
34985;DHT22;21190;58.750;17.004;2023-09-07T01:19:14;12.80;99.90
34985;DHT22;21190;58.750;17.004;2023-09-07T01:21:41;12.80;99.90
34985;DHT22;21190;58.750;17.004;2023-09-07T01:24:09;12.80;99.90
34985;DHT22;21190;58.750;17.004;2023-09-07T01:26:37;12.80;99.90
34985;DHT22;21190;58.750;17.004;2023-09-07T01:29:08;12.80;99.90
34985;DHT22;21190;58.750;17.004;2023-09-07T01:31:36;12.80;99.90
34985;DHT22;21190;58.750;17.004;2023-09-07T01:34:08;12.90;99.90
34985;DHT22;21190;58.750;17.004;2023-09-07T01:36:35;12.90;99.90
34985;DHT22;21190;58.750;17.004;2023-09-07T01:39:04;13.00;99.90
34985;DHT22;21190;58.750;17.004;2023-09-07T01:41:34;13.00;99.90
34985;DHT22;21190;58.750;17.004;2023-09-07T01:44:01;13.00;99.90
34985;DHT22;21190;58.750;17.004;2023-09-07T01:46:28;13.00;99.90
34985;DHT22;21190;58.750;17.004;2023-09-07T01:48:55;13.10;99.90
34985;DHT22;21190;58.750;17.004;2023-09-07T01:51:22;13.10;99.90
34985;DHT22;21190;58.750;17.004;2023-09-07T01:53:49;13.10;99.90
34985;DHT22;21190;58.750;17.004;2023-09-07T01:56:17;13.10;99.90
34985;DHT22;21190;58.750;17.004;2023-09-07T01:58:44;13.10;99.90
34985;DHT22;21190;58.750;17.004;2023-09-07T02:01:25;13.10;99.90
34985;DHT22;21190;58.750;17.004;2023-09-07T02:03:52;13.20;99.90
34985;DHT22;21190;58.750;17.004;2023-09-07T02:06:20;13.20;99.90
34985;DHT22;21190;58.750;17.004;2023-09-07T02:08:47;13.20;99.90
34985;DHT22;21190;58.750;17.004;2023-09-07T02:11:14;13.20;99.90
34985;DHT22;21190;58.750;17.004;2023-09-07T02:13:42;13.20;99.90
34985;DHT22;21190;58.750;17.004;2023-09-07T02:16:09;13.20;99.90
34985;DHT22;21190;58.750;17.004;2023-09-07T02:18:37;13.20;99.90
34985;DHT22;21190;58.750;17.004;2023-09-07T02:21:10;13.20;99.90
34985;DHT22;21190;58.750;17.004;2023-09-07T02:23:37;13.20;99.90
34985;DHT22;21190;58.750;17.004;2023-09-07T02:26:04;13.20;99.90
34985;DHT22;21190;58.750;17.004;2023-09-07T02:28:31;13.20;99.90
34985;DHT22;21190;58.750;17.004;2023-09-07T02:31:03;13.20;99.90
34985;DHT22;21190;58.750;17.004;2023-09-07T02:33:30;13.10;99.90
34985;DHT22;21190;58.750;17.004;2023-09-07T02:35:58;13.10;99.90
34985;DHT22;21190;58.750;17.004;2023-09-07T02:38:25;13.10;99.90
34985;DHT22;21190;58.750;17.004;2023-09-07T02:40:54;13.10;99.90
34985;DHT22;21190;58.750;17.004;2023-09-07T02:43:22;13.10;99.90
34985;DHT22;21190;58.750;17.004;2023-09-07T02:45:49;13.00;99.90
34985;DHT22;21190;58.750;17.004;2023-09-07T02:48:17;13.10;99.90
34985;DHT22;21190;58.750;17.004;2023-09-07T02:50:44;13.00;99.90
34985;DHT22;21190;58.750;17.004;2023-09-07T02:53:15;13.00;99.90
34985;DHT22;21190;58.750;17.004;2023-09-07T02:55:42;13.00;99.90
34985;DHT22;21190;58.750;17.004;2023-09-07T02:58:09;13.10;99.90
34985;DHT22;21190;58.750;17.004;2023-09-07T03:00:41;13.10;99.90
34985;DHT22;21190;58.750;17.004;2023-09-07T03:03:14;13.10;99.90
34985;DHT22;21190;58.750;17.004;2023-09-07T03:05:43;13.20;99.90
34985;DHT22;21190;58.750;17.004;2023-09-07T03:08:10;13.20;99.90
34985;DHT22;21190;58.750;17.004;2023-09-07T03:10:38;13.20;99.90
34985;DHT22;21190;58.750;17.004;2023-09-07T03:13:07;13.30;99.90
34985;DHT22;21190;58.750;17.004;2023-09-07T03:15:34;13.30;99.90
34985;DHT22;21190;58.750;17.004;2023-09-07T03:18:01;13.40;99.90
34985;DHT22;21190;58.750;17.004;2023-09-07T03:20:29;13.40;99.90
34985;DHT22;21190;58.750;17.004;2023-09-07T03:22:59;13.40;99.90
34985;DHT22;21190;58.750;17.004;2023-09-07T03:25:26;13.40;99.90
34985;DHT22;21190;58.750;17.004;2023-09-07T03:27:53;13.40;99.90
34985;DHT22;21190;58.750;17.004;2023-09-07T03:30:20;13.50;99.90
34985;DHT22;21190;58.750;17.004;2023-09-07T03:32:47;13.50;99.90
34985;DHT22;21190;58.750;17.004;2023-09-07T03:35:14;13.50;99.90
34985;DHT22;21190;58.750;17.004;2023-09-07T03:37:43;13.60;99.90
34985;DHT22;21190;58.750;17.004;2023-09-07T03:40:10;13.60;99.90
34985;DHT22;21190;58.750;17.004;2023-09-07T03:42:37;13.60;99.90
34985;DHT22;21190;58.750;17.004;2023-09-07T03:45:04;13.70;99.90
34985;DHT22;21190;58.750;17.004;2023-09-07T03:47:31;13.70;99.90
34985;DHT22;21190;58.750;17.004;2023-09-07T03:49:58;13.80;99.90
34985;DHT22;21190;58.750;17.004;2023-09-07T03:52:26;13.80;99.90
34985;DHT22;21190;58.750;17.004;2023-09-07T03:54:57;13.90;99.90
34985;DHT22;21190;58.750;17.004;2023-09-07T03:57:25;13.90;99.90
34985;DHT22;21190;58.750;17.004;2023-09-07T03:59:53;13.90;99.90
34985;DHT22;21190;58.750;17.004;2023-09-07T04:02:22;13.90;99.90
34985;DHT22;21190;58.750;17.004;2023-09-07T04:04:50;14.00;99.90
34985;DHT22;21190;58.750;17.004;2023-09-07T04:07:18;14.00;99.90
34985;DHT22;21190;58.750;17.004;2023-09-07T04:09:45;14.00;99.90
34985;DHT22;21190;58.750;17.004;2023-09-07T04:12:13;14.00;99.90
34985;DHT22;21190;58.750;17.004;2023-09-07T04:14:40;14.00;99.90
34985;DHT22;21190;58.750;17.004;2023-09-07T04:17:08;14.00;99.90
34985;DHT22;21190;58.750;17.004;2023-09-07T04:19:35;14.00;99.90
34985;DHT22;21190;58.750;17.004;2023-09-07T04:22:02;14.10;99.90
34985;DHT22;21190;58.750;17.004;2023-09-07T04:24:29;14.10;99.90
34985;DHT22;21190;58.750;17.004;2023-09-07T04:27:00;14.10;99.90
34985;DHT22;21190;58.750;17.004;2023-09-07T04:29:28;14.10;99.90
34985;DHT22;21190;58.750;17.004;2023-09-07T04:31:56;14.20;99.90
34985;DHT22;21190;58.750;17.004;2023-09-07T04:34:23;14.20;99.90
34985;DHT22;21190;58.750;17.004;2023-09-07T04:36:50;14.20;99.90
34985;DHT22;21190;58.750;17.004;2023-09-07T04:39:17;14.30;99.90
34985;DHT22;21190;58.750;17.004;2023-09-07T04:41:45;14.30;99.90
34985;DHT22;21190;58.750;17.004;2023-09-07T04:44:12;14.30;99.90
34985;DHT22;21190;58.750;17.004;2023-09-07T04:46:39;14.40;99.90
34985;DHT22;21190;58.750;17.004;2023-09-07T04:49:06;14.40;99.90
34985;DHT22;21190;58.750;17.004;2023-09-07T04:51:33;14.50;99.90
34985;DHT22;21190;58.750;17.004;2023-09-07T04:54:00;14.50;99.90
34985;DHT22;21190;58.750;17.004;2023-09-07T04:56:27;14.50;99.90
34985;DHT22;21190;58.750;17.004;2023-09-07T04:58:56;14.60;99.90
34985;DHT22;21190;58.750;17.004;2023-09-07T05:01:23;14.60;99.90
34985;DHT22;21190;58.750;17.004;2023-09-07T05:03:50;14.70;99.90
34985;DHT22;21190;58.750;17.004;2023-09-07T05:06:20;14.70;99.90
34985;DHT22;21190;58.750;17.004;2023-09-07T05:08:50;14.80;99.90
34985;DHT22;21190;58.750;17.004;2023-09-07T05:11:17;14.80;99.90
34985;DHT22;21190;58.750;17.004;2023-09-07T05:13:43;14.80;99.90
34985;DHT22;21190;58.750;17.004;2023-09-07T05:16:10;14.80;99.90
34985;DHT22;21190;58.750;17.004;2023-09-07T05:18:38;14.90;99.90
34985;DHT22;21190;58.750;17.004;2023-09-07T05:21:14;15.00;99.90
34985;DHT22;21190;58.750;17.004;2023-09-07T05:23:42;15.00;99.90
34985;DHT22;21190;58.750;17.004;2023-09-07T05:26:09;15.00;99.90
34985;DHT22;21190;58.750;17.004;2023-09-07T05:28:36;15.10;99.90
34985;DHT22;21190;58.750;17.004;2023-09-07T05:31:03;15.10;99.90
34985;DHT22;21190;58.750;17.004;2023-09-07T05:33:30;15.20;99.90
34985;DHT22;21190;58.750;17.004;2023-09-07T05:35:57;15.20;99.90
34985;DHT22;21190;58.750;17.004;2023-09-07T05:38:24;15.20;99.90
34985;DHT22;21190;58.750;17.004;2023-09-07T05:40:52;15.20;99.90
34985;DHT22;21190;58.750;17.004;2023-09-07T05:43:21;15.30;99.90
34985;DHT22;21190;58.750;17.004;2023-09-07T05:45:48;15.30;99.90
34985;DHT22;21190;58.750;17.004;2023-09-07T05:48:15;15.30;99.90
34985;DHT22;21190;58.750;17.004;2023-09-07T05:50:45;15.40;99.90
34985;DHT22;21190;58.750;17.004;2023-09-07T05:53:12;15.40;99.90
34985;DHT22;21190;58.750;17.004;2023-09-07T05:55:39;15.40;99.90
34985;DHT22;21190;58.750;17.004;2023-09-07T05:58:07;15.40;99.90
34985;DHT22;21190;58.750;17.004;2023-09-07T06:00:35;15.50;99.90
34985;DHT22;21190;58.750;17.004;2023-09-07T06:03:03;15.50;99.90
34985;DHT22;21190;58.750;17.004;2023-09-07T06:05:30;15.50;99.90
34985;DHT22;21190;58.750;17.004;2023-09-07T06:07:57;15.50;99.90
34985;DHT22;21190;58.750;17.004;2023-09-07T06:10:24;15.50;99.90
34985;DHT22;21190;58.750;17.004;2023-09-07T06:12:51;15.50;99.90
34985;DHT22;21190;58.750;17.004;2023-09-07T06:15:18;15.60;99.90
34985;DHT22;21190;58.750;17.004;2023-09-07T06:17:46;15.60;99.90
34985;DHT22;21190;58.750;17.004;2023-09-07T06:20:13;15.60;99.90
34985;DHT22;21190;58.750;17.004;2023-09-07T06:22:40;15.60;99.90
34985;DHT22;21190;58.750;17.004;2023-09-07T06:25:07;15.60;99.90
34985;DHT22;21190;58.750;17.004;2023-09-07T06:27:34;15.70;99.90
34985;DHT22;21190;58.750;17.004;2023-09-07T06:30:01;15.60;99.90
34985;DHT22;21190;58.750;17.004;2023-09-07T06:32:28;15.70;99.90
34985;DHT22;21190;58.750;17.004;2023-09-07T06:34:55;15.70;99.90
34985;DHT22;21190;58.750;17.004;2023-09-07T06:37:22;15.70;99.90
34985;DHT22;21190;58.750;17.004;2023-09-07T06:39:51;15.70;99.90
34985;DHT22;21190;58.750;17.004;2023-09-07T06:42:18;15.70;99.90
34985;DHT22;21190;58.750;17.004;2023-09-07T06:44:45;15.70;99.90
34985;DHT22;21190;58.750;17.004;2023-09-07T06:47:12;15.80;99.90
34985;DHT22;21190;58.750;17.004;2023-09-07T06:49:39;15.80;99.90
34985;DHT22;21190;58.750;17.004;2023-09-07T06:52:06;15.90;99.90
34985;DHT22;21190;58.750;17.004;2023-09-07T06:54:34;15.90;99.90
34985;DHT22;21190;58.750;17.004;2023-09-07T06:57:01;15.90;99.90
34985;DHT22;21190;58.750;17.004;2023-09-07T06:59:28;16.00;99.90
34985;DHT22;21190;58.750;17.004;2023-09-07T07:01:55;16.00;99.90
34985;DHT22;21190;58.750;17.004;2023-09-07T07:04:22;16.10;99.90
34985;DHT22;21190;58.750;17.004;2023-09-07T07:06:49;16.10;99.90
34985;DHT22;21190;58.750;17.004;2023-09-07T07:09:16;16.10;99.90
34985;DHT22;21190;58.750;17.004;2023-09-07T07:11:43;16.10;99.90
34985;DHT22;21190;58.750;17.004;2023-09-07T07:14:10;16.20;99.90
34985;DHT22;21190;58.750;17.004;2023-09-07T07:16:38;16.20;99.90
34985;DHT22;21190;58.750;17.004;2023-09-07T07:19:05;16.20;99.90
34985;DHT22;21190;58.750;17.004;2023-09-07T07:21:32;16.20;99.90
34985;DHT22;21190;58.750;17.004;2023-09-07T07:23:59;16.30;99.90
34985;DHT22;21190;58.750;17.004;2023-09-07T07:26:26;16.30;99.90
34985;DHT22;21190;58.750;17.004;2023-09-07T07:28:53;16.20;99.90
34985;DHT22;21190;58.750;17.004;2023-09-07T07:31:20;16.20;99.90
34985;DHT22;21190;58.750;17.004;2023-09-07T07:33:47;16.20;99.90
34985;DHT22;21190;58.750;17.004;2023-09-07T07:36:17;16.30;99.90
34985;DHT22;21190;58.750;17.004;2023-09-07T07:38:44;16.30;99.90
34985;DHT22;21190;58.750;17.004;2023-09-07T07:41:11;16.30;99.90
34985;DHT22;21190;58.750;17.004;2023-09-07T07:43:38;16.30;99.90
34985;DHT22;21190;58.750;17.004;2023-09-07T07:46:05;16.40;99.90
34985;DHT22;21190;58.750;17.004;2023-09-07T07:48:32;16.40;99.90
34985;DHT22;21190;58.750;17.004;2023-09-07T07:51:05;16.50;99.90
34985;DHT22;21190;58.750;17.004;2023-09-07T07:53:35;16.50;99.90
34985;DHT22;21190;58.750;17.004;2023-09-07T07:56:02;16.60;99.90
34985;DHT22;21190;58.750;17.004;2023-09-07T07:58:30;16.70;99.90
34985;DHT22;21190;58.750;17.004;2023-09-07T08:00:57;16.70;99.90
34985;DHT22;21190;58.750;17.004;2023-09-07T08:03:25;16.80;99.90
34985;DHT22;21190;58.750;17.004;2023-09-07T08:05:53;16.80;99.90
34985;DHT22;21190;58.750;17.004;2023-09-07T08:08:19;16.90;99.90
34985;DHT22;21190;58.750;17.004;2023-09-07T08:10:46;17.00;99.90
34985;DHT22;21190;58.750;17.004;2023-09-07T08:13:13;17.00;99.90
34985;DHT22;21190;58.750;17.004;2023-09-07T08:15:40;17.00;99.90
34985;DHT22;21190;58.750;17.004;2023-09-07T08:18:08;17.10;99.90
34985;DHT22;21190;58.750;17.004;2023-09-07T08:20:36;17.10;99.90
34985;DHT22;21190;58.750;17.004;2023-09-07T08:23:05;17.20;99.90
34985;DHT22;21190;58.750;17.004;2023-09-07T08:25:35;17.20;99.90
34985;DHT22;21190;58.750;17.004;2023-09-07T08:28:02;17.20;99.90
34985;DHT22;21190;58.750;17.004;2023-09-07T08:30:33;17.30;99.90
34985;DHT22;21190;58.750;17.004;2023-09-07T08:33:01;17.30;99.90
34985;DHT22;21190;58.750;17.004;2023-09-07T08:35:29;17.30;99.90
34985;DHT22;21190;58.750;17.004;2023-09-07T08:37:57;17.50;99.90
34985;DHT22;21190;58.750;17.004;2023-09-07T08:40:26;17.50;99.90
34985;DHT22;21190;58.750;17.004;2023-09-07T08:42:54;17.60;99.90
34985;DHT22;21190;58.750;17.004;2023-09-07T08:45:22;17.60;99.90
34985;DHT22;21190;58.750;17.004;2023-09-07T08:47:53;17.60;99.90
34985;DHT22;21190;58.750;17.004;2023-09-07T08:50:22;17.70;99.90
34985;DHT22;21190;58.750;17.004;2023-09-07T08:52:53;17.70;99.90
34985;DHT22;21190;58.750;17.004;2023-09-07T08:55:21;17.80;99.90
34985;DHT22;21190;58.750;17.004;2023-09-07T08:57:48;17.80;99.90
34985;DHT22;21190;58.750;17.004;2023-09-07T09:00:16;17.80;99.90
34985;DHT22;21190;58.750;17.004;2023-09-07T09:02:46;17.80;99.90
34985;DHT22;21190;58.750;17.004;2023-09-07T09:05:23;17.90;99.90
34985;DHT22;21190;58.750;17.004;2023-09-07T09:08:01;17.90;99.90
34985;DHT22;21190;58.750;17.004;2023-09-07T09:10:29;17.90;99.90
34985;DHT22;21190;58.750;17.004;2023-09-07T09:12:57;18.00;99.90
34985;DHT22;21190;58.750;17.004;2023-09-07T09:15:26;18.10;99.90
34985;DHT22;21190;58.750;17.004;2023-09-07T09:17:54;18.10;99.90
34985;DHT22;21190;58.750;17.004;2023-09-07T09:22:53;18.10;99.90
34985;DHT22;21190;58.750;17.004;2023-09-07T09:25:21;18.20;99.90
34985;DHT22;21190;58.750;17.004;2023-09-07T09:27:48;18.20;99.90
34985;DHT22;21190;58.750;17.004;2023-09-07T09:30:15;18.20;99.90
34985;DHT22;21190;58.750;17.004;2023-09-07T09:32:43;18.30;99.90
34985;DHT22;21190;58.750;17.004;2023-09-07T09:35:10;18.40;99.90
34985;DHT22;21190;58.750;17.004;2023-09-07T09:37:48;18.40;99.90
34985;DHT22;21190;58.750;17.004;2023-09-07T09:40:18;18.50;99.90
34985;DHT22;21190;58.750;17.004;2023-09-07T09:42:45;18.50;99.90
34985;DHT22;21190;58.750;17.004;2023-09-07T09:45:13;18.50;99.90
34985;DHT22;21190;58.750;17.004;2023-09-07T09:47:41;18.50;99.90
34985;DHT22;21190;58.750;17.004;2023-09-07T09:50:10;18.50;99.90
34985;DHT22;21190;58.750;17.004;2023-09-07T09:52:38;18.50;99.90
34985;DHT22;21190;58.750;17.004;2023-09-07T09:55:07;18.60;99.90
34985;DHT22;21190;58.750;17.004;2023-09-07T09:57:39;18.70;99.90
34985;DHT22;21190;58.750;17.004;2023-09-07T10:00:08;18.80;99.90
34985;DHT22;21190;58.750;17.004;2023-09-07T10:02:51;18.80;99.90
34985;DHT22;21190;58.750;17.004;2023-09-07T10:05:22;18.80;99.90
34985;DHT22;21190;58.750;17.004;2023-09-07T10:07:52;18.80;99.90
34985;DHT22;21190;58.750;17.004;2023-09-07T10:10:20;18.90;99.90
34985;DHT22;21190;58.750;17.004;2023-09-07T10:12:53;18.90;99.90
34985;DHT22;21190;58.750;17.004;2023-09-07T10:15:25;18.90;99.90
34985;DHT22;21190;58.750;17.004;2023-09-07T10:23:16;19.00;99.90
34985;DHT22;21190;58.750;17.004;2023-09-07T10:25:50;19.00;99.90
34985;DHT22;21190;58.750;17.004;2023-09-07T10:28:22;19.00;99.90
34985;DHT22;21190;58.750;17.004;2023-09-07T10:33:31;19.20;99.90
34985;DHT22;21190;58.750;17.004;2023-09-07T10:35:59;19.20;99.90
34985;DHT22;21190;58.750;17.004;2023-09-07T10:38:27;19.20;99.90
34985;DHT22;21190;58.750;17.004;2023-09-07T10:40:58;19.20;99.90
34985;DHT22;21190;58.750;17.004;2023-09-07T10:43:27;19.30;99.90
34985;DHT22;21190;58.750;17.004;2023-09-07T10:45:55;19.30;99.90
34985;DHT22;21190;58.750;17.004;2023-09-07T10:48:29;19.40;99.90
34985;DHT22;21190;58.750;17.004;2023-09-07T10:50:56;19.40;99.90
34985;DHT22;21190;58.750;17.004;2023-09-07T10:53:27;19.50;99.90
34985;DHT22;21190;58.750;17.004;2023-09-07T10:55:56;19.60;99.90
34985;DHT22;21190;58.750;17.004;2023-09-07T10:58:29;19.60;99.90
34985;DHT22;21190;58.750;17.004;2023-09-07T11:00:57;19.70;99.90
34985;DHT22;21190;58.750;17.004;2023-09-07T11:03:25;19.60;99.90
34985;DHT22;21190;58.750;17.004;2023-09-07T11:06:04;19.70;99.90
34985;DHT22;21190;58.750;17.004;2023-09-07T11:08:34;19.60;99.90
34985;DHT22;21190;58.750;17.004;2023-09-07T11:11:05;19.70;99.90
34985;DHT22;21190;58.750;17.004;2023-09-07T11:13:32;19.80;99.90
34985;DHT22;21190;58.750;17.004;2023-09-07T11:16:00;19.80;99.90
34985;DHT22;21190;58.750;17.004;2023-09-07T11:18:27;19.80;99.90
34985;DHT22;21190;58.750;17.004;2023-09-07T11:20:56;19.80;99.90
34985;DHT22;21190;58.750;17.004;2023-09-07T11:23:23;19.80;99.90
34985;DHT22;21190;58.750;17.004;2023-09-07T11:25:51;19.80;99.90
34985;DHT22;21190;58.750;17.004;2023-09-07T11:28:19;19.80;99.90
34985;DHT22;21190;58.750;17.004;2023-09-07T11:30:54;19.90;99.90
34985;DHT22;21190;58.750;17.004;2023-09-07T11:33:24;19.90;99.90
34985;DHT22;21190;58.750;17.004;2023-09-07T11:35:52;19.90;99.90
34985;DHT22;21190;58.750;17.004;2023-09-07T11:38:22;19.90;99.90
34985;DHT22;21190;58.750;17.004;2023-09-07T11:40:49;19.90;99.90
34985;DHT22;21190;58.750;17.004;2023-09-07T11:43:17;20.00;99.90
34985;DHT22;21190;58.750;17.004;2023-09-07T11:45:47;20.10;99.90
34985;DHT22;21190;58.750;17.004;2023-09-07T11:48:14;20.10;99.90
34985;DHT22;21190;58.750;17.004;2023-09-07T11:50:42;20.10;99.90
34985;DHT22;21190;58.750;17.004;2023-09-07T11:53:10;20.10;99.90
34985;DHT22;21190;58.750;17.004;2023-09-07T11:55:37;20.10;99.90
34985;DHT22;21190;58.750;17.004;2023-09-07T11:58:04;20.20;99.90
34985;DHT22;21190;58.750;17.004;2023-09-07T12:00:32;20.20;99.90
34985;DHT22;21190;58.750;17.004;2023-09-07T12:02:59;20.20;99.90
34985;DHT22;21190;58.750;17.004;2023-09-07T12:05:26;20.20;99.90
34985;DHT22;21190;58.750;17.004;2023-09-07T12:07:53;20.20;99.90
34985;DHT22;21190;58.750;17.004;2023-09-07T12:10:21;20.20;99.90
34985;DHT22;21190;58.750;17.004;2023-09-07T12:12:48;20.20;99.90
34985;DHT22;21190;58.750;17.004;2023-09-07T12:15:15;20.20;99.90
34985;DHT22;21190;58.750;17.004;2023-09-07T12:17:42;20.30;99.90
34985;DHT22;21190;58.750;17.004;2023-09-07T12:20:10;20.30;99.90
34985;DHT22;21190;58.750;17.004;2023-09-07T12:22:38;20.30;99.90
34985;DHT22;21190;58.750;17.004;2023-09-07T12:25:06;20.30;99.90
34985;DHT22;21190;58.750;17.004;2023-09-07T12:27:41;20.30;99.90
34985;DHT22;21190;58.750;17.004;2023-09-07T12:30:18;20.30;99.90
34985;DHT22;21190;58.750;17.004;2023-09-07T12:32:48;20.40;99.90
34985;DHT22;21190;58.750;17.004;2023-09-07T12:35:15;20.40;99.90
34985;DHT22;21190;58.750;17.004;2023-09-07T12:37:43;20.40;99.90
34985;DHT22;21190;58.750;17.004;2023-09-07T12:40:11;20.40;99.90
34985;DHT22;21190;58.750;17.004;2023-09-07T12:42:40;20.40;99.90
34985;DHT22;21190;58.750;17.004;2023-09-07T12:45:12;20.40;99.90
34985;DHT22;21190;58.750;17.004;2023-09-07T12:47:40;20.40;99.90
34985;DHT22;21190;58.750;17.004;2023-09-07T12:50:08;20.40;99.90
34985;DHT22;21190;58.750;17.004;2023-09-07T12:52:35;20.50;99.90
34985;DHT22;21190;58.750;17.004;2023-09-07T12:55:06;20.50;99.90
34985;DHT22;21190;58.750;17.004;2023-09-07T12:57:34;20.50;99.90
34985;DHT22;21190;58.750;17.004;2023-09-07T13:00:04;20.50;99.90
34985;DHT22;21190;58.750;17.004;2023-09-07T13:02:32;20.60;99.90
34985;DHT22;21190;58.750;17.004;2023-09-07T13:04:59;20.60;99.90
34985;DHT22;21190;58.750;17.004;2023-09-07T13:07:26;20.50;99.90
34985;DHT22;21190;58.750;17.004;2023-09-07T13:09:53;20.50;99.90
34985;DHT22;21190;58.750;17.004;2023-09-07T13:12:21;20.50;99.90
34985;DHT22;21190;58.750;17.004;2023-09-07T13:14:48;20.50;99.90
34985;DHT22;21190;58.750;17.004;2023-09-07T13:17:15;20.50;99.90
34985;DHT22;21190;58.750;17.004;2023-09-07T13:19:42;20.60;99.90
34985;DHT22;21190;58.750;17.004;2023-09-07T13:22:10;20.60;99.90
34985;DHT22;21190;58.750;17.004;2023-09-07T13:24:37;20.50;99.90
34985;DHT22;21190;58.750;17.004;2023-09-07T13:27:04;20.50;99.90
34985;DHT22;21190;58.750;17.004;2023-09-07T13:29:34;20.50;99.90
34985;DHT22;21190;58.750;17.004;2023-09-07T13:32:01;20.60;99.90
34985;DHT22;21190;58.750;17.004;2023-09-07T13:34:29;20.50;99.90
34985;DHT22;21190;58.750;17.004;2023-09-07T13:36:56;20.50;99.90
34985;DHT22;21190;58.750;17.004;2023-09-07T13:39:23;20.50;99.90
34985;DHT22;21190;58.750;17.004;2023-09-07T13:41:50;20.50;99.90
34985;DHT22;21190;58.750;17.004;2023-09-07T13:44:17;20.60;99.90
34985;DHT22;21190;58.750;17.004;2023-09-07T13:46:45;20.50;99.90
34985;DHT22;21190;58.750;17.004;2023-09-07T13:49:12;20.50;99.90
34985;DHT22;21190;58.750;17.004;2023-09-07T13:51:42;20.50;99.90
34985;DHT22;21190;58.750;17.004;2023-09-07T13:54:09;20.50;99.90
34985;DHT22;21190;58.750;17.004;2023-09-07T13:56:36;20.50;99.90
34985;DHT22;21190;58.750;17.004;2023-09-07T13:59:03;20.50;99.90
34985;DHT22;21190;58.750;17.004;2023-09-07T14:01:31;20.50;99.90
34985;DHT22;21190;58.750;17.004;2023-09-07T14:03:59;20.50;99.90
34985;DHT22;21190;58.750;17.004;2023-09-07T14:06:26;20.50;99.90
34985;DHT22;21190;58.750;17.004;2023-09-07T14:08:53;20.50;99.90
34985;DHT22;21190;58.750;17.004;2023-09-07T14:11:20;20.50;99.90
34985;DHT22;21190;58.750;17.004;2023-09-07T14:13:49;20.40;99.90
34985;DHT22;21190;58.750;17.004;2023-09-07T14:16:18;20.40;99.90
34985;DHT22;21190;58.750;17.004;2023-09-07T14:18:47;20.40;99.90
34985;DHT22;21190;58.750;17.004;2023-09-07T14:21:15;20.40;99.90
34985;DHT22;21190;58.750;17.004;2023-09-07T14:23:43;20.40;99.90
34985;DHT22;21190;58.750;17.004;2023-09-07T14:26:10;20.40;99.90
34985;DHT22;21190;58.750;17.004;2023-09-07T14:28:38;20.40;99.90
34985;DHT22;21190;58.750;17.004;2023-09-07T14:31:07;20.50;99.90
34985;DHT22;21190;58.750;17.004;2023-09-07T14:33:35;20.40;99.90
34985;DHT22;21190;58.750;17.004;2023-09-07T14:36:06;20.30;99.90
34985;DHT22;21190;58.750;17.004;2023-09-07T14:38:35;20.20;99.90
34985;DHT22;21190;58.750;17.004;2023-09-07T14:41:08;20.20;99.90
34985;DHT22;21190;58.750;17.004;2023-09-07T14:43:38;20.20;99.90
34985;DHT22;21190;58.750;17.004;2023-09-07T14:46:05;20.20;99.90
34985;DHT22;21190;58.750;17.004;2023-09-07T14:48:32;20.20;99.90
34985;DHT22;21190;58.750;17.004;2023-09-07T14:50:59;20.30;99.90
34985;DHT22;21190;58.750;17.004;2023-09-07T14:53:26;20.30;99.90
34985;DHT22;21190;58.750;17.004;2023-09-07T14:55:54;20.30;99.90
34985;DHT22;21190;58.750;17.004;2023-09-07T14:58:21;20.30;99.90
34985;DHT22;21190;58.750;17.004;2023-09-07T15:00:48;20.40;99.90
34985;DHT22;21190;58.750;17.004;2023-09-07T15:03:15;20.30;99.90
34985;DHT22;21190;58.750;17.004;2023-09-07T15:05:42;20.30;99.90
34985;DHT22;21190;58.750;17.004;2023-09-07T15:08:09;20.30;99.90
34985;DHT22;21190;58.750;17.004;2023-09-07T15:10:36;20.30;99.90
34985;DHT22;21190;58.750;17.004;2023-09-07T15:13:03;20.30;99.90
34985;DHT22;21190;58.750;17.004;2023-09-07T15:15:31;20.20;99.90
34985;DHT22;21190;58.750;17.004;2023-09-07T15:18:04;20.20;99.90
34985;DHT22;21190;58.750;17.004;2023-09-07T15:20:31;20.20;99.90
34985;DHT22;21190;58.750;17.004;2023-09-07T15:22:58;20.10;99.90
34985;DHT22;21190;58.750;17.004;2023-09-07T15:25:25;20.10;99.90
34985;DHT22;21190;58.750;17.004;2023-09-07T15:27:53;20.10;99.90
34985;DHT22;21190;58.750;17.004;2023-09-07T15:30:22;20.00;99.90